Terminal Aerodrome Forecast
Issued by NWS Tulsa, OK

Home | Current Version | Previous Version | Text Only | Print | Product List | Glossary On
Versions: 1 2 3 4 5 6 7 8 9 10 11 12 13
000
FTUS44 KTSA 211720
TAFFSM
TAF
KFSM 211720Z 2118/2218 VRB03KT P6SM SCT020 SCT250
      TEMPO 2118/2120 BKN025
     FM220900 VRB02KT 2SM BR SCT003
     FM221500 08004KT P6SM SCT010=

USA.gov is the U.S. government's official web portal to all federal, state and local government web resources and services.